sensor_id;sensor_type;location;lat;lon;timestamp;temperature;humidity
75517;DHT22;64097;52.548;13.406;2023-12-22T06:02:53;10.90;57.60
75517;DHT22;64097;52.548;13.406;2023-12-22T06:05:20;10.90;57.60
75517;DHT22;64097;52.548;13.406;2023-12-22T06:07:46;10.90;57.30
75517;DHT22;64097;52.548;13.406;2023-12-22T06:10:12;10.90;57.30
75517;DHT22;64097;52.548;13.406;2023-12-22T06:12:38;10.90;57.30
75517;DHT22;64097;52.548;13.406;2023-12-22T06:15:04;10.90;57.20
75517;DHT22;64097;52.548;13.406;2023-12-22T06:17:29;10.90;57.10
75517;DHT22;64097;52.548;13.406;2023-12-22T06:19:55;10.90;57.00
75517;DHT22;64097;52.548;13.406;2023-12-22T06:22:21;10.90;56.80
75517;DHT22;64097;52.548;13.406;2023-12-22T06:24:49;10.90;56.50
75517;DHT22;64097;52.548;13.406;2023-12-22T06:27:14;10.90;56.30
75517;DHT22;64097;52.548;13.406;2023-12-22T06:29:40;10.90;56.20
75517;DHT22;64097;52.548;13.406;2023-12-22T06:32:06;10.90;56.10
75517;DHT22;64097;52.548;13.406;2023-12-22T06:34:32;10.90;56.20
75517;DHT22;64097;52.548;13.406;2023-12-22T06:36:58;10.90;56.00
75517;DHT22;64097;52.548;13.406;2023-12-22T06:39:24;10.90;55.90
75517;DHT22;64097;52.548;13.406;2023-12-22T06:41:50;10.90;56.00
75517;DHT22;64097;52.548;13.406;2023-12-22T06:44:16;10.90;55.70
75517;DHT22;64097;52.548;13.406;2023-12-22T06:46:42;10.90;55.80
75517;DHT22;64097;52.548;13.406;2023-12-22T06:49:08;10.90;55.80
75517;DHT22;64097;52.548;13.406;2023-12-22T06:51:33;10.90;56.00
75517;DHT22;64097;52.548;13.406;2023-12-22T06:54:03;10.90;56.30
75517;DHT22;64097;52.548;13.406;2023-12-22T06:56:34;10.90;56.60
75517;DHT22;64097;52.548;13.406;2023-12-22T06:59:00;10.90;56.80
75517;DHT22;64097;52.548;13.406;2023-12-22T07:01:33;10.90;57.20
75517;DHT22;64097;52.548;13.406;2023-12-22T07:04:00;10.90;57.30
75517;DHT22;64097;52.548;13.406;2023-12-22T07:06:28;10.90;57.50
75517;DHT22;64097;52.548;13.406;2023-12-22T07:11:23;10.90;57.90
75517;DHT22;64097;52.548;13.406;2023-12-22T07:13:49;10.80;57.90
75517;DHT22;64097;52.548;13.406;2023-12-22T07:16:15;10.80;58.00
75517;DHT22;64097;52.548;13.406;2023-12-22T07:18:41;10.80;58.00
75517;DHT22;64097;52.548;13.406;2023-12-22T07:21:06;10.80;58.00
75517;DHT22;64097;52.548;13.406;2023-12-22T07:23:32;10.80;58.20
75517;DHT22;64097;52.548;13.406;2023-12-22T07:25:58;10.80;58.30
75517;DHT22;64097;52.548;13.406;2023-12-22T07:28:24;10.80;58.00
75517;DHT22;64097;52.548;13.406;2023-12-22T07:30:49;10.80;57.80
75517;DHT22;64097;52.548;13.406;2023-12-22T07:33:15;10.70;57.70
75517;DHT22;64097;52.548;13.406;2023-12-22T07:35:41;10.70;57.80
75517;DHT22;64097;52.548;13.406;2023-12-22T07:38:06;10.70;57.80
75517;DHT22;64097;52.548;13.406;2023-12-22T07:40:32;10.70;57.90
75517;DHT22;64097;52.548;13.406;2023-12-22T07:42:58;10.60;57.90
75517;DHT22;64097;52.548;13.406;2023-12-22T07:45:24;10.70;57.90
75517;DHT22;64097;52.548;13.406;2023-12-22T07:47:49;10.70;57.80
75517;DHT22;64097;52.548;13.406;2023-12-22T07:50:15;10.70;58.50
75517;DHT22;64097;52.548;13.406;2023-12-22T07:52:41;10.70;57.70
75517;DHT22;64097;52.548;13.406;2023-12-22T07:55:08;10.70;57.50
75517;DHT22;64097;52.548;13.406;2023-12-22T07:57:37;10.70;57.40
75517;DHT22;64097;52.548;13.406;2023-12-22T08:00:04;10.70;57.40
75517;DHT22;64097;52.548;13.406;2023-12-22T08:02:30;10.70;57.10
75517;DHT22;64097;52.548;13.406;2023-12-22T08:04:56;10.70;56.90
75517;DHT22;64097;52.548;13.406;2023-12-22T08:07:21;10.70;56.80
75517;DHT22;64097;52.548;13.406;2023-12-22T08:09:47;10.70;56.90
75517;DHT22;64097;52.548;13.406;2023-12-22T08:12:13;10.70;56.90
75517;DHT22;64097;52.548;13.406;2023-12-22T08:14:38;10.70;56.60
75517;DHT22;64097;52.548;13.406;2023-12-22T08:17:04;10.70;56.40
75517;DHT22;64097;52.548;13.406;2023-12-22T08:19:30;10.70;56.60
75517;DHT22;64097;52.548;13.406;2023-12-22T08:21:56;10.70;56.20
75517;DHT22;64097;52.548;13.406;2023-12-22T08:24:22;10.60;55.90
75517;DHT22;64097;52.548;13.406;2023-12-22T08:26:48;10.60;55.80
75517;DHT22;64097;52.548;13.406;2023-12-22T08:29:14;10.60;56.00
75517;DHT22;64097;52.548;13.406;2023-12-22T08:31:39;10.60;55.70
75517;DHT22;64097;52.548;13.406;2023-12-22T08:34:05;10.50;55.60
75517;DHT22;64097;52.548;13.406;2023-12-22T08:36:31;10.50;55.70
75517;DHT22;64097;52.548;13.406;2023-12-22T08:38:57;10.50;55.70
75517;DHT22;64097;52.548;13.406;2023-12-22T08:41:24;10.50;55.60
75517;DHT22;64097;52.548;13.406;2023-12-22T08:43:49;10.50;55.50
75517;DHT22;64097;52.548;13.406;2023-12-22T08:46:15;10.50;55.50
75517;DHT22;64097;52.548;13.406;2023-12-22T08:48:42;10.50;55.70
75517;DHT22;64097;52.548;13.406;2023-12-22T08:51:07;10.40;55.70
75517;DHT22;64097;52.548;13.406;2023-12-22T08:53:33;10.50;55.70
75517;DHT22;64097;52.548;13.406;2023-12-22T08:56:02;10.40;55.70
75517;DHT22;64097;52.548;13.406;2023-12-22T08:58:29;10.40;55.50
75517;DHT22;64097;52.548;13.406;2023-12-22T09:00:55;10.50;55.50
75517;DHT22;64097;52.548;13.406;2023-12-22T09:03:20;10.50;55.50
75517;DHT22;64097;52.548;13.406;2023-12-22T09:05:46;10.40;55.40
75517;DHT22;64097;52.548;13.406;2023-12-22T09:08:12;10.50;55.30
75517;DHT22;64097;52.548;13.406;2023-12-22T09:10:38;10.50;55.40
75517;DHT22;64097;52.548;13.406;2023-12-22T09:13:04;10.50;55.50
75517;DHT22;64097;52.548;13.406;2023-12-22T09:15:30;10.50;55.40
75517;DHT22;64097;52.548;13.406;2023-12-22T09:17:55;10.50;55.40
75517;DHT22;64097;52.548;13.406;2023-12-22T09:20:22;10.50;55.50
75517;DHT22;64097;52.548;13.406;2023-12-22T09:22:48;10.60;55.20
75517;DHT22;64097;52.548;13.406;2023-12-22T09:25:13;10.60;55.30
75517;DHT22;64097;52.548;13.406;2023-12-22T09:27:39;10.60;55.30
75517;DHT22;64097;52.548;13.406;2023-12-22T09:30:05;10.60;55.00
75517;DHT22;64097;52.548;13.406;2023-12-22T09:32:34;10.70;55.00
75517;DHT22;64097;52.548;13.406;2023-12-22T09:35:00;10.70;54.80
75517;DHT22;64097;52.548;13.406;2023-12-22T09:37:26;10.70;54.70
75517;DHT22;64097;52.548;13.406;2023-12-22T09:39:52;10.70;54.60
75517;DHT22;64097;52.548;13.406;2023-12-22T09:42:19;10.70;54.50
75517;DHT22;64097;52.548;13.406;2023-12-22T09:44:49;10.80;54.50
75517;DHT22;64097;52.548;13.406;2023-12-22T09:47:16;10.80;54.20
75517;DHT22;64097;52.548;13.406;2023-12-22T09:49:43;10.80;53.80
75517;DHT22;64097;52.548;13.406;2023-12-22T09:52:10;10.80;53.70
75517;DHT22;64097;52.548;13.406;2023-12-22T09:54:37;10.80;53.40
75517;DHT22;64097;52.548;13.406;2023-12-22T09:57:04;10.80;53.30
75517;DHT22;64097;52.548;13.406;2023-12-22T09:59:30;10.80;53.30
75517;DHT22;64097;52.548;13.406;2023-12-22T10:01:57;10.80;53.60
75517;DHT22;64097;52.548;13.406;2023-12-22T10:04:25;10.80;53.80
75517;DHT22;64097;52.548;13.406;2023-12-22T10:06:51;10.80;53.80
75517;DHT22;64097;52.548;13.406;2023-12-22T10:09:19;10.80;53.70
75517;DHT22;64097;52.548;13.406;2023-12-22T10:11:47;10.90;53.70
75517;DHT22;64097;52.548;13.406;2023-12-22T10:14:15;10.90;53.60
75517;DHT22;64097;52.548;13.406;2023-12-22T10:16:51;11.00;53.50
75517;DHT22;64097;52.548;13.406;2023-12-22T10:19:17;11.00;53.50
75517;DHT22;64097;52.548;13.406;2023-12-22T10:21:43;11.10;53.30
75517;DHT22;64097;52.548;13.406;2023-12-22T10:27:04;11.20;53.30
75517;DHT22;64097;52.548;13.406;2023-12-22T10:29:30;11.10;52.70
75517;DHT22;64097;52.548;13.406;2023-12-22T10:31:55;11.20;52.60
75517;DHT22;64097;52.548;13.406;2023-12-22T10:34:21;11.20;52.70
75517;DHT22;64097;52.548;13.406;2023-12-22T10:36:47;11.20;53.10
75517;DHT22;64097;52.548;13.406;2023-12-22T10:39:12;11.20;52.00
75517;DHT22;64097;52.548;13.406;2023-12-22T10:41:38;11.20;51.80
75517;DHT22;64097;52.548;13.406;2023-12-22T10:44:04;11.20;51.80
75517;DHT22;64097;52.548;13.406;2023-12-22T10:46:34;11.20;51.90
75517;DHT22;64097;52.548;13.406;2023-12-22T10:49:01;11.20;51.90
75517;DHT22;64097;52.548;13.406;2023-12-22T10:51:28;11.20;51.90
75517;DHT22;64097;52.548;13.406;2023-12-22T10:53:58;11.20;52.00
75517;DHT22;64097;52.548;13.406;2023-12-22T10:56:24;11.20;51.90
75517;DHT22;64097;52.548;13.406;2023-12-22T10:58:51;11.20;52.00
75517;DHT22;64097;52.548;13.406;2023-12-22T11:01:18;11.30;52.00
75517;DHT22;64097;52.548;13.406;2023-12-22T11:03:50;11.30;51.70
75517;DHT22;64097;52.548;13.406;2023-12-22T11:06:16;11.20;51.30
75517;DHT22;64097;52.548;13.406;2023-12-22T11:08:43;11.20;51.50
75517;DHT22;64097;52.548;13.406;2023-12-22T11:11:38;11.20;51.40
75517;DHT22;64097;52.548;13.406;2023-12-22T11:14:07;11.20;51.20
75517;DHT22;64097;52.548;13.406;2023-12-22T11:16:36;11.20;51.10
75517;DHT22;64097;52.548;13.406;2023-12-22T11:19:03;11.20;51.30
75517;DHT22;64097;52.548;13.406;2023-12-22T11:21:30;11.10;52.10
75517;DHT22;64097;52.548;13.406;2023-12-22T11:23:56;11.20;51.30
75517;DHT22;64097;52.548;13.406;2023-12-22T11:26:25;11.20;51.30
75517;DHT22;64097;52.548;13.406;2023-12-22T11:28:52;11.20;51.30
75517;DHT22;64097;52.548;13.406;2023-12-22T11:31:18;11.20;51.10
75517;DHT22;64097;52.548;13.406;2023-12-22T11:33:49;11.20;51.10
75517;DHT22;64097;52.548;13.406;2023-12-22T11:36:17;11.20;50.90
75517;DHT22;64097;52.548;13.406;2023-12-22T11:38:44;11.20;51.10
75517;DHT22;64097;52.548;13.406;2023-12-22T11:41:31;11.20;51.00
75517;DHT22;64097;52.548;13.406;2023-12-22T11:44:00;11.20;50.70
75517;DHT22;64097;52.548;13.406;2023-12-22T11:46:26;11.20;50.60
75517;DHT22;64097;52.548;13.406;2023-12-22T11:48:52;11.20;50.80
75517;DHT22;64097;52.548;13.406;2023-12-22T11:51:19;11.10;50.70
75517;DHT22;64097;52.548;13.406;2023-12-22T11:53:45;11.20;50.90
75517;DHT22;64097;52.548;13.406;2023-12-22T11:56:12;11.10;50.50
75517;DHT22;64097;52.548;13.406;2023-12-22T11:58:48;11.20;50.50
75517;DHT22;64097;52.548;13.406;2023-12-22T12:01:23;11.20;50.30
75517;DHT22;64097;52.548;13.406;2023-12-22T12:03:52;11.20;50.00
75517;DHT22;64097;52.548;13.406;2023-12-22T12:09:00;11.20;50.40
75517;DHT22;64097;52.548;13.406;2023-12-22T12:14:22;11.20;50.60
75517;DHT22;64097;52.548;13.406;2023-12-22T12:17:00;11.20;50.80
75517;DHT22;64097;52.548;13.406;2023-12-22T12:19:29;11.20;50.90
75517;DHT22;64097;52.548;13.406;2023-12-22T12:21:55;11.30;50.90
75517;DHT22;64097;52.548;13.406;2023-12-22T12:24:21;11.30;50.90
75517;DHT22;64097;52.548;13.406;2023-12-22T12:26:48;11.30;50.90
75517;DHT22;64097;52.548;13.406;2023-12-22T12:29:16;11.30;50.90
75517;DHT22;64097;52.548;13.406;2023-12-22T12:31:43;11.30;51.00
75517;DHT22;64097;52.548;13.406;2023-12-22T12:34:11;11.30;50.90
75517;DHT22;64097;52.548;13.406;2023-12-22T12:36:38;11.30;50.80
75517;DHT22;64097;52.548;13.406;2023-12-22T12:39:08;11.40;50.90
75517;DHT22;64097;52.548;13.406;2023-12-22T12:41:40;11.30;51.00
75517;DHT22;64097;52.548;13.406;2023-12-22T12:44:06;11.30;51.20
75517;DHT22;64097;52.548;13.406;2023-12-22T12:46:37;11.40;51.30
75517;DHT22;64097;52.548;13.406;2023-12-22T12:51:35;11.50;51.10
75517;DHT22;64097;52.548;13.406;2023-12-22T12:54:01;11.50;51.00
75517;DHT22;64097;52.548;13.406;2023-12-22T12:56:27;11.50;50.70
75517;DHT22;64097;52.548;13.406;2023-12-22T12:58:52;11.50;50.70
75517;DHT22;64097;52.548;13.406;2023-12-22T13:01:18;11.50;50.70
75517;DHT22;64097;52.548;13.406;2023-12-22T13:03:54;11.50;50.70
75517;DHT22;64097;52.548;13.406;2023-12-22T13:06:20;11.50;50.80
75517;DHT22;64097;52.548;13.406;2023-12-22T13:08:52;11.50;50.70
75517;DHT22;64097;52.548;13.406;2023-12-22T13:11:29;11.50;50.70
75517;DHT22;64097;52.548;13.406;2023-12-22T13:13:57;11.60;50.90
75517;DHT22;64097;52.548;13.406;2023-12-22T13:16:24;11.60;50.80
75517;DHT22;64097;52.548;13.406;2023-12-22T13:18:56;11.60;50.80
75517;DHT22;64097;52.548;13.406;2023-12-22T13:21:23;11.70;51.00
75517;DHT22;64097;52.548;13.406;2023-12-22T13:24:10;11.60;51.10
75517;DHT22;64097;52.548;13.406;2023-12-22T13:26:36;11.60;51.10
75517;DHT22;64097;52.548;13.406;2023-12-22T13:29:02;11.60;51.00
75517;DHT22;64097;52.548;13.406;2023-12-22T13:31:30;11.60;51.00
75517;DHT22;64097;52.548;13.406;2023-12-22T13:33:56;11.60;51.10
75517;DHT22;64097;52.548;13.406;2023-12-22T13:36:22;11.70;50.80
75517;DHT22;64097;52.548;13.406;2023-12-22T13:38:48;11.60;50.50
75517;DHT22;64097;52.548;13.406;2023-12-22T13:41:15;11.60;50.50
75517;DHT22;64097;52.548;13.406;2023-12-22T13:43:41;11.60;50.60
75517;DHT22;64097;52.548;13.406;2023-12-22T13:46:07;11.60;50.70
75517;DHT22;64097;52.548;13.406;2023-12-22T13:48:34;11.60;50.70
75517;DHT22;64097;52.548;13.406;2023-12-22T13:51:00;11.60;50.60
75517;DHT22;64097;52.548;13.406;2023-12-22T13:53:27;11.60;50.40
75517;DHT22;64097;52.548;13.406;2023-12-22T13:55:58;11.60;50.60
75517;DHT22;64097;52.548;13.406;2023-12-22T13:58:25;11.60;50.50
